RORY(METAR)
06/25 08:00
METAR RORY 242300Z AUTO 14010KT 9999 FEW007 BKN160 26/25 Q1010 RMK
A2984=
戻る
トップページへ戻る
IMOC Co,.Ltd.